sensor_id;sensor_type;location;lat;lon;timestamp;temperature;humidity
770;DHT22;368;48.698;9.116;2022-09-13T00:00:21;12.60;99.90
770;DHT22;368;48.698;9.116;2022-09-13T00:02:48;12.40;99.90
770;DHT22;368;48.698;9.116;2022-09-13T00:05:15;12.50;99.90
770;DHT22;368;48.698;9.116;2022-09-13T00:07:42;12.50;99.90
770;DHT22;368;48.698;9.116;2022-09-13T00:10:08;12.90;99.90
770;DHT22;368;48.698;9.116;2022-09-13T00:12:35;12.60;99.90
770;DHT22;368;48.698;9.116;2022-09-13T00:15:02;12.60;99.90
770;DHT22;368;48.698;9.116;2022-09-13T00:17:30;12.70;99.90
770;DHT22;368;48.698;9.116;2022-09-13T00:19:57;12.30;99.90
770;DHT22;368;48.698;9.116;2022-09-13T00:22:25;12.20;99.90
770;DHT22;368;48.698;9.116;2022-09-13T00:24:52;12.30;99.90
770;DHT22;368;48.698;9.116;2022-09-13T00:27:19;12.10;99.90
770;DHT22;368;48.698;9.116;2022-09-13T00:29:45;12.00;99.90
770;DHT22;368;48.698;9.116;2022-09-13T00:32:12;12.60;99.90
770;DHT22;368;48.698;9.116;2022-09-13T00:34:40;12.70;99.90
770;DHT22;368;48.698;9.116;2022-09-13T00:37:07;12.80;99.90
770;DHT22;368;48.698;9.116;2022-09-13T00:39:34;12.50;99.90
770;DHT22;368;48.698;9.116;2022-09-13T00:42:01;12.70;99.90
770;DHT22;368;48.698;9.116;2022-09-13T00:44:52;12.60;99.90
770;DHT22;368;48.698;9.116;2022-09-13T00:47:24;12.50;99.90
770;DHT22;368;48.698;9.116;2022-09-13T00:49:56;12.60;99.90
770;DHT22;368;48.698;9.116;2022-09-13T00:52:26;12.30;99.90
770;DHT22;368;48.698;9.116;2022-09-13T00:54:56;12.40;99.90
770;DHT22;368;48.698;9.116;2022-09-13T00:57:24;12.40;99.90
770;DHT22;368;48.698;9.116;2022-09-13T00:59:54;12.40;99.90
770;DHT22;368;48.698;9.116;2022-09-13T01:02:22;12.60;99.90
770;DHT22;368;48.698;9.116;2022-09-13T01:04:49;12.40;99.90
770;DHT22;368;48.698;9.116;2022-09-13T01:07:18;12.40;99.90
770;DHT22;368;48.698;9.116;2022-09-13T01:09:48;12.50;99.90
770;DHT22;368;48.698;9.116;2022-09-13T01:12:21;12.50;99.90
770;DHT22;368;48.698;9.116;2022-09-13T01:14:51;12.50;99.90
770;DHT22;368;48.698;9.116;2022-09-13T01:17:18;12.40;99.90
770;DHT22;368;48.698;9.116;2022-09-13T01:19:45;12.40;99.90
770;DHT22;368;48.698;9.116;2022-09-13T01:22:41;12.10;99.90
770;DHT22;368;48.698;9.116;2022-09-13T01:28:21;12.20;99.90
770;DHT22;368;48.698;9.116;2022-09-13T01:30:58;12.30;99.90
770;DHT22;368;48.698;9.116;2022-09-13T01:33:37;12.10;99.90
770;DHT22;368;48.698;9.116;2022-09-13T01:39:04;12.00;99.90
770;DHT22;368;48.698;9.116;2022-09-13T01:41:53;12.10;99.90
770;DHT22;368;48.698;9.116;2022-09-13T01:44:33;12.00;99.90
770;DHT22;368;48.698;9.116;2022-09-13T01:47:11;12.20;99.90
770;DHT22;368;48.698;9.116;2022-09-13T01:49:49;11.80;99.90
770;DHT22;368;48.698;9.116;2022-09-13T01:52:24;12.00;99.90
770;DHT22;368;48.698;9.116;2022-09-13T01:55:02;12.00;99.90
770;DHT22;368;48.698;9.116;2022-09-13T01:57:34;12.40;99.90
770;DHT22;368;48.698;9.116;2022-09-13T02:00:06;12.60;99.90
770;DHT22;368;48.698;9.116;2022-09-13T02:02:39;12.30;99.90
770;DHT22;368;48.698;9.116;2022-09-13T02:05:12;12.10;99.90
770;DHT22;368;48.698;9.116;2022-09-13T02:07:42;12.30;99.90
770;DHT22;368;48.698;9.116;2022-09-13T02:10:15;12.20;99.90
770;DHT22;368;48.698;9.116;2022-09-13T02:12:44;12.30;99.90
770;DHT22;368;48.698;9.116;2022-09-13T02:15:15;12.00;99.90
770;DHT22;368;48.698;9.116;2022-09-13T02:17:47;12.20;99.90
770;DHT22;368;48.698;9.116;2022-09-13T02:20:18;12.30;99.90
770;DHT22;368;48.698;9.116;2022-09-13T02:22:50;12.20;99.90
770;DHT22;368;48.698;9.116;2022-09-13T02:25:20;12.40;99.90
770;DHT22;368;48.698;9.116;2022-09-13T02:27:50;12.30;99.90
770;DHT22;368;48.698;9.116;2022-09-13T02:30:19;12.50;99.90
770;DHT22;368;48.698;9.116;2022-09-13T02:32:53;12.40;99.90
770;DHT22;368;48.698;9.116;2022-09-13T02:35:24;12.30;99.90
770;DHT22;368;48.698;9.116;2022-09-13T02:37:57;12.30;99.90
770;DHT22;368;48.698;9.116;2022-09-13T02:40:31;12.30;99.90
770;DHT22;368;48.698;9.116;2022-09-13T02:43:04;12.60;99.90
770;DHT22;368;48.698;9.116;2022-09-13T02:45:41;12.20;99.90
770;DHT22;368;48.698;9.116;2022-09-13T02:48:18;12.50;99.90
770;DHT22;368;48.698;9.116;2022-09-13T02:50:53;12.20;99.90
770;DHT22;368;48.698;9.116;2022-09-13T02:53:28;12.10;99.90
770;DHT22;368;48.698;9.116;2022-09-13T02:56:03;12.20;99.90
770;DHT22;368;48.698;9.116;2022-09-13T02:58:38;12.40;99.90
770;DHT22;368;48.698;9.116;2022-09-13T03:01:10;12.20;99.90
770;DHT22;368;48.698;9.116;2022-09-13T03:03:38;12.30;99.90
770;DHT22;368;48.698;9.116;2022-09-13T03:06:05;12.40;99.90
770;DHT22;368;48.698;9.116;2022-09-13T03:08:32;12.10;99.90
770;DHT22;368;48.698;9.116;2022-09-13T03:11:10;12.40;99.90
770;DHT22;368;48.698;9.116;2022-09-13T03:13:53;12.40;99.90
770;DHT22;368;48.698;9.116;2022-09-13T03:16:36;12.50;99.90
770;DHT22;368;48.698;9.116;2022-09-13T03:19:21;12.10;99.90
770;DHT22;368;48.698;9.116;2022-09-13T03:22:03;12.10;99.90
770;DHT22;368;48.698;9.116;2022-09-13T03:24:40;12.00;99.90
770;DHT22;368;48.698;9.116;2022-09-13T03:27:18;11.90;99.90
770;DHT22;368;48.698;9.116;2022-09-13T03:29:55;11.90;99.90
770;DHT22;368;48.698;9.116;2022-09-13T03:32:30;12.20;99.90
770;DHT22;368;48.698;9.116;2022-09-13T03:35:06;12.40;99.90
770;DHT22;368;48.698;9.116;2022-09-13T03:37:44;12.40;99.90
770;DHT22;368;48.698;9.116;2022-09-13T03:40:15;12.50;99.90
770;DHT22;368;48.698;9.116;2022-09-13T03:42:49;12.20;99.90
770;DHT22;368;48.698;9.116;2022-09-13T03:45:20;12.00;99.90
770;DHT22;368;48.698;9.116;2022-09-13T03:47:49;12.00;99.90
770;DHT22;368;48.698;9.116;2022-09-13T03:50:20;11.60;99.90
770;DHT22;368;48.698;9.116;2022-09-13T03:52:51;11.70;99.90
770;DHT22;368;48.698;9.116;2022-09-13T03:55:19;11.40;99.90
770;DHT22;368;48.698;9.116;2022-09-13T03:57:46;11.80;99.90
770;DHT22;368;48.698;9.116;2022-09-13T04:00:14;11.90;99.90
770;DHT22;368;48.698;9.116;2022-09-13T04:02:42;11.90;99.90
770;DHT22;368;48.698;9.116;2022-09-13T04:05:09;11.70;99.90
770;DHT22;368;48.698;9.116;2022-09-13T04:07:37;11.70;99.90
770;DHT22;368;48.698;9.116;2022-09-13T04:10:05;11.80;99.90
770;DHT22;368;48.698;9.116;2022-09-13T04:12:32;11.70;99.90
770;DHT22;368;48.698;9.116;2022-09-13T04:14:59;11.60;99.90
770;DHT22;368;48.698;9.116;2022-09-13T04:17:26;11.50;99.90
770;DHT22;368;48.698;9.116;2022-09-13T04:19:53;11.30;99.90
770;DHT22;368;48.698;9.116;2022-09-13T04:22:20;11.60;99.90
770;DHT22;368;48.698;9.116;2022-09-13T04:24:48;11.40;99.90
770;DHT22;368;48.698;9.116;2022-09-13T04:27:17;11.60;99.90
770;DHT22;368;48.698;9.116;2022-09-13T04:29:44;11.20;99.90
770;DHT22;368;48.698;9.116;2022-09-13T04:32:11;11.40;99.90
770;DHT22;368;48.698;9.116;2022-09-13T04:34:37;11.10;99.90
770;DHT22;368;48.698;9.116;2022-09-13T04:37:05;11.40;99.90
770;DHT22;368;48.698;9.116;2022-09-13T04:39:32;11.40;99.90
770;DHT22;368;48.698;9.116;2022-09-13T04:42:00;11.60;99.90
770;DHT22;368;48.698;9.116;2022-09-13T04:44:27;11.40;99.90
770;DHT22;368;48.698;9.116;2022-09-13T04:46:54;11.60;99.90
770;DHT22;368;48.698;9.116;2022-09-13T04:49:20;11.60;99.90
770;DHT22;368;48.698;9.116;2022-09-13T04:51:47;11.60;99.90
770;DHT22;368;48.698;9.116;2022-09-13T04:54:14;11.80;99.90
770;DHT22;368;48.698;9.116;2022-09-13T04:56:42;12.00;99.90
770;DHT22;368;48.698;9.116;2022-09-13T04:59:11;12.20;99.90
770;DHT22;368;48.698;9.116;2022-09-13T05:01:38;12.00;99.90
770;DHT22;368;48.698;9.116;2022-09-13T05:04:06;12.00;99.90
770;DHT22;368;48.698;9.116;2022-09-13T05:06:33;11.80;99.90
770;DHT22;368;48.698;9.116;2022-09-13T05:09:00;11.80;99.90
770;DHT22;368;48.698;9.116;2022-09-13T05:11:27;12.00;99.90
770;DHT22;368;48.698;9.116;2022-09-13T05:13:56;11.80;99.90
770;DHT22;368;48.698;9.116;2022-09-13T05:16:26;12.20;99.90
770;DHT22;368;48.698;9.116;2022-09-13T05:18:53;11.90;99.90
770;DHT22;368;48.698;9.116;2022-09-13T05:21:20;12.20;99.90
770;DHT22;368;48.698;9.116;2022-09-13T05:23:48;12.20;99.90
770;DHT22;368;48.698;9.116;2022-09-13T05:26:15;11.90;99.90
770;DHT22;368;48.698;9.116;2022-09-13T05:28:43;12.10;99.90
770;DHT22;368;48.698;9.116;2022-09-13T05:31:14;12.10;99.90
770;DHT22;368;48.698;9.116;2022-09-13T05:33:43;12.40;99.90
770;DHT22;368;48.698;9.116;2022-09-13T05:36:10;12.30;99.90
770;DHT22;368;48.698;9.116;2022-09-13T05:38:37;12.00;99.90
770;DHT22;368;48.698;9.116;2022-09-13T05:41:05;12.30;99.90
770;DHT22;368;48.698;9.116;2022-09-13T05:43:33;12.20;99.90
770;DHT22;368;48.698;9.116;2022-09-13T05:46:02;12.20;99.90
770;DHT22;368;48.698;9.116;2022-09-13T05:48:29;12.20;99.90
770;DHT22;368;48.698;9.116;2022-09-13T05:51:03;12.20;99.90
770;DHT22;368;48.698;9.116;2022-09-13T05:53:30;12.20;99.90
770;DHT22;368;48.698;9.116;2022-09-13T05:55:57;12.50;99.90
770;DHT22;368;48.698;9.116;2022-09-13T05:58:24;12.50;99.90
770;DHT22;368;48.698;9.116;2022-09-13T06:00:52;12.60;99.90
770;DHT22;368;48.698;9.116;2022-09-13T06:03:19;12.40;99.90
770;DHT22;368;48.698;9.116;2022-09-13T06:05:46;12.80;99.90
770;DHT22;368;48.698;9.116;2022-09-13T06:08:14;13.00;99.90
770;DHT22;368;48.698;9.116;2022-09-13T06:10:41;13.20;99.90
770;DHT22;368;48.698;9.116;2022-09-13T06:13:08;13.70;99.90
770;DHT22;368;48.698;9.116;2022-09-13T06:15:34;13.70;99.90
770;DHT22;368;48.698;9.116;2022-09-13T06:18:01;13.90;99.90
770;DHT22;368;48.698;9.116;2022-09-13T06:20:28;13.80;99.90
770;DHT22;368;48.698;9.116;2022-09-13T06:22:55;14.00;99.90
770;DHT22;368;48.698;9.116;2022-09-13T06:25:23;14.00;99.90
770;DHT22;368;48.698;9.116;2022-09-13T06:27:50;14.30;99.90
770;DHT22;368;48.698;9.116;2022-09-13T06:30:17;14.30;99.90
770;DHT22;368;48.698;9.116;2022-09-13T06:32:44;14.20;99.90
770;DHT22;368;48.698;9.116;2022-09-13T06:35:10;13.80;99.90
770;DHT22;368;48.698;9.116;2022-09-13T06:37:37;13.90;99.90
770;DHT22;368;48.698;9.116;2022-09-13T06:40:05;13.70;99.90
770;DHT22;368;48.698;9.116;2022-09-13T06:42:34;13.70;99.90
770;DHT22;368;48.698;9.116;2022-09-13T06:45:01;14.00;99.90
770;DHT22;368;48.698;9.116;2022-09-13T06:47:28;14.30;99.90
770;DHT22;368;48.698;9.116;2022-09-13T06:49:55;14.60;99.90
770;DHT22;368;48.698;9.116;2022-09-13T06:52:22;14.10;99.90
770;DHT22;368;48.698;9.116;2022-09-13T06:54:49;14.20;99.90
770;DHT22;368;48.698;9.116;2022-09-13T06:57:16;14.30;99.90
770;DHT22;368;48.698;9.116;2022-09-13T06:59:44;15.20;99.90
770;DHT22;368;48.698;9.116;2022-09-13T07:02:11;15.40;99.90
770;DHT22;368;48.698;9.116;2022-09-13T07:04:39;15.80;99.90
770;DHT22;368;48.698;9.116;2022-09-13T07:07:05;16.10;99.90
770;DHT22;368;48.698;9.116;2022-09-13T07:09:32;16.40;99.90
770;DHT22;368;48.698;9.116;2022-09-13T07:11:59;16.60;99.90
770;DHT22;368;48.698;9.116;2022-09-13T07:14:28;16.80;99.90
770;DHT22;368;48.698;9.116;2022-09-13T07:16:56;17.70;99.90
770;DHT22;368;48.698;9.116;2022-09-13T07:19:24;18.40;99.90
770;DHT22;368;48.698;9.116;2022-09-13T07:21:53;18.40;99.90
770;DHT22;368;48.698;9.116;2022-09-13T07:24:21;19.40;99.90
770;DHT22;368;48.698;9.116;2022-09-13T07:26:49;20.00;99.90
770;DHT22;368;48.698;9.116;2022-09-13T07:29:17;20.10;99.90
770;DHT22;368;48.698;9.116;2022-09-13T07:31:48;21.20;99.10
770;DHT22;368;48.698;9.116;2022-09-13T07:34:18;21.50;98.40
770;DHT22;368;48.698;9.116;2022-09-13T07:36:47;20.90;98.30
770;DHT22;368;48.698;9.116;2022-09-13T07:39:15;20.90;98.40
770;DHT22;368;48.698;9.116;2022-09-13T07:41:42;21.60;97.50
770;DHT22;368;48.698;9.116;2022-09-13T07:44:09;21.40;98.10
770;DHT22;368;48.698;9.116;2022-09-13T07:46:36;22.40;97.00
770;DHT22;368;48.698;9.116;2022-09-13T07:49:05;23.40;96.30
770;DHT22;368;48.698;9.116;2022-09-13T07:51:34;23.30;94.70
770;DHT22;368;48.698;9.116;2022-09-13T07:54:03;24.50;93.60
770;DHT22;368;48.698;9.116;2022-09-13T07:56:32;24.30;92.60
770;DHT22;368;48.698;9.116;2022-09-13T07:59:00;24.10;94.10
770;DHT22;368;48.698;9.116;2022-09-13T08:01:29;24.60;93.50
770;DHT22;368;48.698;9.116;2022-09-13T08:04:00;26.20;90.60
770;DHT22;368;48.698;9.116;2022-09-13T08:06:30;25.60;90.50
770;DHT22;368;48.698;9.116;2022-09-13T08:08:59;26.90;90.30
770;DHT22;368;48.698;9.116;2022-09-13T08:11:28;27.40;87.60
770;DHT22;368;48.698;9.116;2022-09-13T08:13:56;27.90;82.10
770;DHT22;368;48.698;9.116;2022-09-13T08:16:23;26.40;84.00
770;DHT22;368;48.698;9.116;2022-09-13T08:18:52;25.60;88.20
770;DHT22;368;48.698;9.116;2022-09-13T08:21:19;26.00;88.60
770;DHT22;368;48.698;9.116;2022-09-13T08:23:46;25.40;88.60
770;DHT22;368;48.698;9.116;2022-09-13T08:26:15;24.20;90.30
770;DHT22;368;48.698;9.116;2022-09-13T08:28:42;23.40;92.00
770;DHT22;368;48.698;9.116;2022-09-13T08:31:11;25.00;91.50
770;DHT22;368;48.698;9.116;2022-09-13T08:33:42;25.50;90.70
770;DHT22;368;48.698;9.116;2022-09-13T08:36:09;26.20;89.40
770;DHT22;368;48.698;9.116;2022-09-13T08:38:35;26.30;88.90
770;DHT22;368;48.698;9.116;2022-09-13T08:41:15;25.90;87.50
770;DHT22;368;48.698;9.116;2022-09-13T08:43:49;26.90;85.70
770;DHT22;368;48.698;9.116;2022-09-13T08:46:21;26.80;82.80
770;DHT22;368;48.698;9.116;2022-09-13T08:48:51;27.10;81.00
770;DHT22;368;48.698;9.116;2022-09-13T08:51:27;26.70;82.40
770;DHT22;368;48.698;9.116;2022-09-13T08:53:54;26.70;82.60
770;DHT22;368;48.698;9.116;2022-09-13T08:56:24;25.70;84.70
770;DHT22;368;48.698;9.116;2022-09-13T08:59:21;26.30;85.90
770;DHT22;368;48.698;9.116;2022-09-13T09:01:59;26.90;84.50
770;DHT22;368;48.698;9.116;2022-09-13T09:04:35;26.40;84.20
770;DHT22;368;48.698;9.116;2022-09-13T09:07:08;25.60;87.10
770;DHT22;368;48.698;9.116;2022-09-13T09:09:40;25.70;90.50
770;DHT22;368;48.698;9.116;2022-09-13T09:12:14;27.60;85.40
770;DHT22;368;48.698;9.116;2022-09-13T09:14:48;27.80;83.20
770;DHT22;368;48.698;9.116;2022-09-13T09:17:21;28.00;82.40
770;DHT22;368;48.698;9.116;2022-09-13T09:19:54;29.40;79.70
770;DHT22;368;48.698;9.116;2022-09-13T09:22:32;28.40;77.00
770;DHT22;368;48.698;9.116;2022-09-13T09:25:00;28.20;77.30
770;DHT22;368;48.698;9.116;2022-09-13T09:27:30;27.50;80.50
770;DHT22;368;48.698;9.116;2022-09-13T09:29:58;27.30;83.50
770;DHT22;368;48.698;9.116;2022-09-13T09:32:50;29.90;75.90
770;DHT22;368;48.698;9.116;2022-09-13T09:35:28;29.60;70.50
770;DHT22;368;48.698;9.116;2022-09-13T09:38:31;30.80;67.40
770;DHT22;368;48.698;9.116;2022-09-13T09:40:59;29.70;68.70
770;DHT22;368;48.698;9.116;2022-09-13T09:43:31;31.00;61.70
770;DHT22;368;48.698;9.116;2022-09-13T09:46:02;31.50;60.30
770;DHT22;368;48.698;9.116;2022-09-13T09:48:36;31.30;59.90
770;DHT22;368;48.698;9.116;2022-09-13T09:51:07;30.80;63.70
770;DHT22;368;48.698;9.116;2022-09-13T09:53:39;31.40;61.10
770;DHT22;368;48.698;9.116;2022-09-13T09:56:22;30.50;64.40
770;DHT22;368;48.698;9.116;2022-09-13T09:58:49;30.30;66.10
770;DHT22;368;48.698;9.116;2022-09-13T10:01:22;31.30;58.10
770;DHT22;368;48.698;9.116;2022-09-13T10:03:53;29.70;58.10
770;DHT22;368;48.698;9.116;2022-09-13T10:06:24;28.90;59.50
770;DHT22;368;48.698;9.116;2022-09-13T10:08:56;30.00;59.10
770;DHT22;368;48.698;9.116;2022-09-13T10:11:37;30.60;57.60
770;DHT22;368;48.698;9.116;2022-09-13T10:14:05;30.10;56.90
770;DHT22;368;48.698;9.116;2022-09-13T10:16:33;30.10;59.20
770;DHT22;368;48.698;9.116;2022-09-13T10:19:22;31.50;59.30
770;DHT22;368;48.698;9.116;2022-09-13T10:22:00;33.40;55.00
770;DHT22;368;48.698;9.116;2022-09-13T10:24:27;32.10;54.80
770;DHT22;368;48.698;9.116;2022-09-13T10:26:55;30.20;59.60
770;DHT22;368;48.698;9.116;2022-09-13T10:29:23;30.40;58.80
770;DHT22;368;48.698;9.116;2022-09-13T10:31:52;30.40;57.90
770;DHT22;368;48.698;9.116;2022-09-13T10:34:24;31.30;57.00
770;DHT22;368;48.698;9.116;2022-09-13T10:36:55;31.80;56.30
770;DHT22;368;48.698;9.116;2022-09-13T10:39:23;33.40;55.90
770;DHT22;368;48.698;9.116;2022-09-13T10:41:53;33.30;54.00
770;DHT22;368;48.698;9.116;2022-09-13T10:44:25;33.40;52.90
770;DHT22;368;48.698;9.116;2022-09-13T10:46:54;34.00;51.90
770;DHT22;368;48.698;9.116;2022-09-13T10:49:35;35.20;49.80
770;DHT22;368;48.698;9.116;2022-09-13T10:52:31;35.00;50.50
770;DHT22;368;48.698;9.116;2022-09-13T10:55:24;36.40;46.90
770;DHT22;368;48.698;9.116;2022-09-13T10:57:52;36.70;46.80
770;DHT22;368;48.698;9.116;2022-09-13T11:00:21;36.70;46.20
770;DHT22;368;48.698;9.116;2022-09-13T11:03:14;35.90;44.10
770;DHT22;368;48.698;9.116;2022-09-13T11:05:48;37.30;43.00
770;DHT22;368;48.698;9.116;2022-09-13T11:08:35;35.70;43.30
770;DHT22;368;48.698;9.116;2022-09-13T11:11:12;36.10;41.10
770;DHT22;368;48.698;9.116;2022-09-13T11:13:50;35.30;43.20
770;DHT22;368;48.698;9.116;2022-09-13T11:22:27;36.90;39.50
770;DHT22;368;48.698;9.116;2022-09-13T11:25:02;36.50;39.30
770;DHT22;368;48.698;9.116;2022-09-13T11:27:44;34.70;41.50
770;DHT22;368;48.698;9.116;2022-09-13T11:30:17;35.10;42.20
770;DHT22;368;48.698;9.116;2022-09-13T11:32:55;35.50;40.60
770;DHT22;368;48.698;9.116;2022-09-13T11:35:41;34.90;37.20
770;DHT22;368;48.698;9.116;2022-09-13T11:38:29;33.00;41.00
770;DHT22;368;48.698;9.116;2022-09-13T11:41:05;34.00;40.10
770;DHT22;368;48.698;9.116;2022-09-13T11:43:50;33.30;43.90
770;DHT22;368;48.698;9.116;2022-09-13T11:46:26;32.60;44.90
770;DHT22;368;48.698;9.116;2022-09-13T11:49:14;32.70;45.70
770;DHT22;368;48.698;9.116;2022-09-13T11:51:57;34.50;43.20
770;DHT22;368;48.698;9.116;2022-09-13T11:54:35;33.90;42.90
770;DHT22;368;48.698;9.116;2022-09-13T11:57:08;33.60;42.90
770;DHT22;368;48.698;9.116;2022-09-13T11:59:39;33.10;43.90
770;DHT22;368;48.698;9.116;2022-09-13T12:02:17;32.80;45.00
770;DHT22;368;48.698;9.116;2022-09-13T12:04:51;32.30;45.10
770;DHT22;368;48.698;9.116;2022-09-13T12:07:28;32.00;48.90
770;DHT22;368;48.698;9.116;2022-09-13T12:10:02;30.70;49.10
770;DHT22;368;48.698;9.116;2022-09-13T12:12:33;30.50;48.90
770;DHT22;368;48.698;9.116;2022-09-13T12:15:04;30.80;47.00
770;DHT22;368;48.698;9.116;2022-09-13T12:17:37;30.20;48.90
770;DHT22;368;48.698;9.116;2022-09-13T12:20:13;30.30;48.80
770;DHT22;368;48.698;9.116;2022-09-13T12:22:43;30.50;49.10
770;DHT22;368;48.698;9.116;2022-09-13T12:25:18;29.80;50.10
770;DHT22;368;48.698;9.116;2022-09-13T12:27:53;30.80;47.70
770;DHT22;368;48.698;9.116;2022-09-13T12:30:23;31.00;48.40
770;DHT22;368;48.698;9.116;2022-09-13T12:32:51;30.90;49.80
770;DHT22;368;48.698;9.116;2022-09-13T12:35:23;30.90;48.60
770;DHT22;368;48.698;9.116;2022-09-13T12:38:23;32.00;47.50
770;DHT22;368;48.698;9.116;2022-09-13T12:41:13;31.50;47.20
770;DHT22;368;48.698;9.116;2022-09-13T12:43:56;32.70;47.00
770;DHT22;368;48.698;9.116;2022-09-13T12:46:51;33.30;47.20
770;DHT22;368;48.698;9.116;2022-09-13T12:49:37;33.60;44.30
770;DHT22;368;48.698;9.116;2022-09-13T12:52:29;33.40;45.40
770;DHT22;368;48.698;9.116;2022-09-13T12:55:17;31.60;46.90
770;DHT22;368;48.698;9.116;2022-09-13T12:57:52;32.10;47.30
770;DHT22;368;48.698;9.116;2022-09-13T13:00:23;33.00;46.90
770;DHT22;368;48.698;9.116;2022-09-13T13:03:02;32.40;46.50
770;DHT22;368;48.698;9.116;2022-09-13T13:05:38;33.00;46.20
770;DHT22;368;48.698;9.116;2022-09-13T13:08:25;33.70;45.60
770;DHT22;368;48.698;9.116;2022-09-13T13:11:04;33.60;44.90
770;DHT22;368;48.698;9.116;2022-09-13T13:13:36;33.70;44.40
770;DHT22;368;48.698;9.116;2022-09-13T13:16:21;33.50;45.10
770;DHT22;368;48.698;9.116;2022-09-13T13:18:49;33.80;44.30
770;DHT22;368;48.698;9.116;2022-09-13T13:21:35;34.90;44.10
770;DHT22;368;48.698;9.116;2022-09-13T13:27:39;35.50;43.00
770;DHT22;368;48.698;9.116;2022-09-13T13:30:41;34.00;43.80
770;DHT22;368;48.698;9.116;2022-09-13T13:33:19;33.20;44.10
770;DHT22;368;48.698;9.116;2022-09-13T13:35:46;32.80;45.50
770;DHT22;368;48.698;9.116;2022-09-13T13:38:15;32.00;46.00
770;DHT22;368;48.698;9.116;2022-09-13T13:40:42;31.80;46.50
770;DHT22;368;48.698;9.116;2022-09-13T13:43:32;31.20;47.30
770;DHT22;368;48.698;9.116;2022-09-13T13:46:25;32.00;46.60
770;DHT22;368;48.698;9.116;2022-09-13T13:48:52;31.20;45.40
770;DHT22;368;48.698;9.116;2022-09-13T13:51:26;30.30;46.70
770;DHT22;368;48.698;9.116;2022-09-13T13:54:01;30.60;47.10
770;DHT22;368;48.698;9.116;2022-09-13T13:56:47;30.70;47.50
770;DHT22;368;48.698;9.116;2022-09-13T13:59:21;33.10;44.70
770;DHT22;368;48.698;9.116;2022-09-13T14:01:51;34.90;42.40
770;DHT22;368;48.698;9.116;2022-09-13T14:04:47;36.70;40.60
770;DHT22;368;48.698;9.116;2022-09-13T14:10:13;37.60;39.70
770;DHT22;368;48.698;9.116;2022-09-13T14:12:55;37.60;39.00
770;DHT22;368;48.698;9.116;2022-09-13T14:15:43;35.80;39.60
770;DHT22;368;48.698;9.116;2022-09-13T14:18:46;34.80;40.90
770;DHT22;368;48.698;9.116;2022-09-13T14:21:23;35.10;40.60
770;DHT22;368;48.698;9.116;2022-09-13T14:24:16;35.80;40.20
770;DHT22;368;48.698;9.116;2022-09-13T14:26:44;35.90;40.00
770;DHT22;368;48.698;9.116;2022-09-13T14:29:15;35.50;40.50
770;DHT22;368;48.698;9.116;2022-09-13T14:31:46;34.80;40.10
770;DHT22;368;48.698;9.116;2022-09-13T14:34:21;35.20;40.50
770;DHT22;368;48.698;9.116;2022-09-13T14:36:53;36.10;40.40
770;DHT22;368;48.698;9.116;2022-09-13T14:39:21;35.50;40.50
770;DHT22;368;48.698;9.116;2022-09-13T14:41:57;36.50;38.80
770;DHT22;368;48.698;9.116;2022-09-13T14:44:25;36.30;38.60
770;DHT22;368;48.698;9.116;2022-09-13T14:46:58;35.60;39.40
770;DHT22;368;48.698;9.116;2022-09-13T14:49:32;36.00;36.10
770;DHT22;368;48.698;9.116;2022-09-13T14:52:02;35.30;37.80
770;DHT22;368;48.698;9.116;2022-09-13T14:54:34;34.10;38.80
770;DHT22;368;48.698;9.116;2022-09-13T14:57:04;33.10;39.20
770;DHT22;368;48.698;9.116;2022-09-13T14:59:35;31.80;39.60
770;DHT22;368;48.698;9.116;2022-09-13T15:02:16;31.10;42.90
770;DHT22;368;48.698;9.116;2022-09-13T15:04:46;31.30;42.40
770;DHT22;368;48.698;9.116;2022-09-13T15:07:20;31.00;42.20
770;DHT22;368;48.698;9.116;2022-09-13T15:09:48;30.50;42.40
770;DHT22;368;48.698;9.116;2022-09-13T15:12:22;30.30;42.40
770;DHT22;368;48.698;9.116;2022-09-13T15:15:24;30.10;44.10
770;DHT22;368;48.698;9.116;2022-09-13T15:17:53;29.50;42.50
770;DHT22;368;48.698;9.116;2022-09-13T15:20:21;29.60;44.30
770;DHT22;368;48.698;9.116;2022-09-13T15:22:49;29.60;44.20
770;DHT22;368;48.698;9.116;2022-09-13T15:25:21;29.40;43.10
770;DHT22;368;48.698;9.116;2022-09-13T15:27:49;29.30;42.90
770;DHT22;368;48.698;9.116;2022-09-13T15:30:25;29.30;45.10
770;DHT22;368;48.698;9.116;2022-09-13T15:33:13;29.80;43.80
770;DHT22;368;48.698;9.116;2022-09-13T15:35:42;29.80;43.60
770;DHT22;368;48.698;9.116;2022-09-13T15:38:26;29.60;44.80
770;DHT22;368;48.698;9.116;2022-09-13T15:41:11;29.10;46.30
770;DHT22;368;48.698;9.116;2022-09-13T15:43:38;28.50;48.30
770;DHT22;368;48.698;9.116;2022-09-13T15:46:07;28.20;50.50
770;DHT22;368;48.698;9.116;2022-09-13T15:48:35;28.10;49.10
770;DHT22;368;48.698;9.116;2022-09-13T15:51:07;27.80;50.60
770;DHT22;368;48.698;9.116;2022-09-13T15:53:35;27.60;51.00
770;DHT22;368;48.698;9.116;2022-09-13T15:56:04;27.50;53.90
770;DHT22;368;48.698;9.116;2022-09-13T15:58:32;27.60;50.30
770;DHT22;368;48.698;9.116;2022-09-13T16:00:58;27.60;52.90
770;DHT22;368;48.698;9.116;2022-09-13T16:03:27;27.40;54.40
770;DHT22;368;48.698;9.116;2022-09-13T16:05:54;27.20;52.00
770;DHT22;368;48.698;9.116;2022-09-13T16:08:22;27.30;52.50
770;DHT22;368;48.698;9.116;2022-09-13T16:10:49;27.00;50.60
770;DHT22;368;48.698;9.116;2022-09-13T16:13:16;26.90;53.30
770;DHT22;368;48.698;9.116;2022-09-13T16:15:43;26.80;52.90
770;DHT22;368;48.698;9.116;2022-09-13T16:18:14;26.60;52.60
770;DHT22;368;48.698;9.116;2022-09-13T16:20:43;26.50;53.30
770;DHT22;368;48.698;9.116;2022-09-13T16:23:10;26.40;54.00
770;DHT22;368;48.698;9.116;2022-09-13T16:25:37;26.30;55.00
770;DHT22;368;48.698;9.116;2022-09-13T16:28:04;26.30;54.30
770;DHT22;368;48.698;9.116;2022-09-13T16:30:31;26.10;54.70
770;DHT22;368;48.698;9.116;2022-09-13T16:32:58;25.90;56.10
770;DHT22;368;48.698;9.116;2022-09-13T16:35:28;25.80;55.30
770;DHT22;368;48.698;9.116;2022-09-13T16:37:56;25.70;54.70
770;DHT22;368;48.698;9.116;2022-09-13T16:40:23;25.70;55.80
770;DHT22;368;48.698;9.116;2022-09-13T16:42:50;25.60;54.60
770;DHT22;368;48.698;9.116;2022-09-13T16:45:18;25.40;55.80
770;DHT22;368;48.698;9.116;2022-09-13T16:47:45;25.30;56.10
770;DHT22;368;48.698;9.116;2022-09-13T16:50:12;25.10;56.40
770;DHT22;368;48.698;9.116;2022-09-13T16:52:39;25.00;57.10
770;DHT22;368;48.698;9.116;2022-09-13T16:55:08;24.90;56.90
770;DHT22;368;48.698;9.116;2022-09-13T16:57:35;24.80;57.80
770;DHT22;368;48.698;9.116;2022-09-13T17:00:05;24.60;57.90
770;DHT22;368;48.698;9.116;2022-09-13T17:02:35;24.60;58.30
770;DHT22;368;48.698;9.116;2022-09-13T17:05:02;24.40;58.70
770;DHT22;368;48.698;9.116;2022-09-13T17:07:29;24.30;59.10
770;DHT22;368;48.698;9.116;2022-09-13T17:09:56;24.10;59.70
770;DHT22;368;48.698;9.116;2022-09-13T17:12:24;23.80;60.50
770;DHT22;368;48.698;9.116;2022-09-13T17:14:52;23.70;61.00
770;DHT22;368;48.698;9.116;2022-09-13T17:17:20;23.70;61.80
770;DHT22;368;48.698;9.116;2022-09-13T17:19:47;23.70;61.80
770;DHT22;368;48.698;9.116;2022-09-13T17:22:13;23.60;62.50
770;DHT22;368;48.698;9.116;2022-09-13T17:24:41;23.50;62.70